Elkton, South Dakota
Current Conditions -  °F | °C
As of 3:14 AM on Wednesday 22 Oct 2014 (Local Time) from KPQN Reporting Station
Clear Clear  
Wind Chill: 50°   Ceiling: Unl
Heat Index: 50°   Visibility: 10mi
Dew Point: 43°   Wind: 15mph
Humidity: 76%   Direction: 170°S
Pressure: 30.03"   Gusts: 21mph
Location:  44.24°N, 96.48°W
Report Text: KPQN 220814Z AUTO 17013G18KT 10SM CLR 10/06 A3003 RMK AO2
Loading
Personal Weather Stations






























Interactive Weather Map
Tropical Storm Tracking
New forecast layout! Learn more

10-Day Weather Forecast

Advertisements
Track Severe Weather on mobile